createdAt,value
2022-08-23T00:02:29.554Z,17.90
2022-08-23T00:05:09.104Z,17.30
2022-08-23T00:07:42.831Z,17.90
2022-08-23T00:10:15.752Z,16.50
2022-08-23T00:12:47.412Z,18.00
2022-08-23T00:15:20.892Z,17.70
2022-08-23T00:17:50.717Z,17.40
2022-08-23T00:20:20.837Z,18.50
2022-08-23T00:22:52.283Z,17.40
2022-08-23T00:25:22.092Z,17.30
2022-08-23T00:27:52.079Z,18.10
2022-08-23T00:30:21.774Z,18.50
2022-08-23T00:32:53.468Z,17.30
2022-08-23T00:35:26.196Z,18.30
2022-08-23T00:38:30.412Z,17.70
2022-08-23T00:40:53.629Z,17.50
2022-08-23T00:43:57.874Z,17.60
2022-08-23T00:47:04.501Z,16.10
2022-08-23T00:49:38.971Z,17.30
2022-08-23T00:52:12.377Z,17.10
2022-08-23T00:54:45.676Z,18.20
2022-08-23T00:57:19.397Z,17.60
2022-08-23T00:59:48.874Z,16.50
2022-08-23T01:02:19.035Z,18.40
2022-08-23T01:04:55.853Z,18.20
2022-08-23T01:07:36.419Z,18.00
2022-08-23T01:10:20.953Z,17.80
2022-08-23T01:13:01.623Z,17.20
2022-08-23T01:15:42.177Z,17.60
2022-08-23T01:18:14.501Z,17.90
2022-08-23T01:21:17.037Z,17.50
2022-08-23T01:23:53.634Z,17.20
2022-08-23T01:26:25.099Z,18.10
2022-08-23T01:28:55.355Z,17.80
2022-08-23T01:31:25.808Z,17.60
2022-08-23T01:34:05.992Z,18.20
2022-08-23T01:36:37.720Z,17.10
2022-08-23T01:39:08.313Z,16.70
2022-08-23T01:41:38.902Z,17.10
2022-08-23T01:44:09.225Z,17.80
2022-08-23T01:46:38.945Z,16.50
2022-08-23T01:49:08.493Z,17.20
2022-08-23T01:51:38.800Z,17.40
2022-08-23T01:54:08.348Z,18.00
2022-08-23T01:56:39.802Z,18.40
2022-08-23T01:59:10.367Z,17.60
2022-08-23T02:01:39.056Z,17.30
2022-08-23T02:04:10.398Z,17.00
2022-08-23T02:06:42.014Z,17.40
2022-08-23T02:09:17.257Z,18.00
2022-08-23T02:11:50.137Z,17.60
2022-08-23T02:14:21.538Z,17.60
2022-08-23T02:17:03.420Z,18.10
2022-08-23T02:19:36.972Z,16.30
2022-08-23T02:22:08.568Z,17.10
2022-08-23T02:24:43.029Z,16.80
2022-08-23T02:27:17.147Z,16.10
2022-08-23T02:29:49.771Z,15.40
2022-08-23T02:32:23.271Z,15.70
2022-08-23T02:35:04.870Z,16.80
2022-08-23T02:37:37.407Z,17.10
2022-08-23T02:40:08.371Z,16.10
2022-08-23T02:42:36.162Z,15.90
2022-08-23T02:45:05.820Z,16.60
2022-08-23T02:47:33.556Z,15.00
2022-08-23T02:50:01.307Z,15.10
2022-08-23T02:52:32.257Z,15.40
2022-08-23T02:55:00.899Z,16.50
2022-08-23T02:57:31.701Z,16.70
2022-08-23T03:00:01.320Z,15.30
2022-08-23T03:02:31.801Z,15.90
2022-08-23T03:05:03.087Z,16.30
2022-08-23T03:07:32.727Z,16.00
2022-08-23T03:10:05.944Z,16.20
2022-08-23T03:12:35.698Z,16.90
2022-08-23T03:15:06.517Z,16.60
2022-08-23T03:17:37.267Z,15.80
2022-08-23T03:20:07.831Z,15.70
2022-08-23T03:22:37.895Z,16.30
2022-08-23T03:25:08.367Z,18.10
2022-08-23T03:27:44.780Z,16.80
2022-08-23T03:30:19.695Z,16.60
2022-08-23T03:32:49.558Z,16.30
2022-08-23T03:35:19.796Z,16.60
2022-08-23T03:37:47.735Z,16.50
2022-08-23T03:40:15.593Z,16.60
2022-08-23T03:42:45.392Z,15.70
2022-08-23T03:45:13.344Z,17.20
2022-08-23T03:47:41.517Z,16.50
2022-08-23T03:50:09.740Z,17.00
2022-08-23T03:52:41.245Z,16.80
2022-08-23T03:55:09.282Z,16.20
2022-08-23T03:57:38.757Z,16.70
2022-08-23T04:00:11.135Z,16.50
2022-08-23T04:02:38.906Z,16.20
2022-08-23T04:05:12.698Z,15.80
2022-08-23T04:07:42.241Z,16.30
2022-08-23T04:10:16.624Z,15.80
2022-08-23T04:12:44.730Z,16.70
2022-08-23T04:15:14.737Z,15.20
2022-08-23T04:17:44.215Z,15.80
2022-08-23T04:20:13.105Z,15.80
2022-08-23T04:22:41.073Z,16.70
2022-08-23T04:25:32.366Z,16.40
2022-08-23T04:28:02.928Z,16.30
2022-08-23T04:30:33.559Z,15.00
2022-08-23T04:33:01.883Z,15.40
2022-08-23T04:35:32.593Z,15.70
2022-08-23T04:38:02.304Z,16.00
2022-08-23T04:40:49.995Z,17.30
2022-08-23T04:43:19.644Z,16.50
2022-08-23T04:45:49.083Z,16.10
2022-08-23T04:48:20.432Z,15.70
2022-08-23T04:50:48.173Z,16.40
2022-08-23T04:53:18.089Z,15.50
2022-08-23T04:55:46.003Z,16.20
2022-08-23T04:58:14.996Z,15.30
2022-08-23T05:00:47.169Z,14.50
2022-08-23T05:03:20.341Z,14.50
2022-08-23T05:05:49.993Z,13.90
2022-08-23T05:08:20.008Z,14.70
2022-08-23T05:10:47.796Z,14.00
2022-08-23T05:13:15.512Z,14.30
2022-08-23T05:15:47.066Z,13.80
2022-08-23T05:18:16.734Z,14.20
2022-08-23T05:20:47.000Z,15.00
2022-08-23T05:23:16.827Z,13.80
2022-08-23T05:25:52.527Z,15.50
2022-08-23T05:28:31.755Z,15.60
2022-08-23T05:31:02.604Z,15.60
2022-08-23T05:33:34.868Z,15.60
2022-08-23T05:36:06.057Z,15.40
2022-08-23T05:38:35.737Z,15.10
2022-08-23T05:41:05.245Z,14.30
2022-08-23T05:43:35.673Z,16.10
2022-08-23T05:46:19.899Z,15.40
2022-08-23T05:48:53.256Z,16.00
2022-08-23T05:51:29.052Z,18.00
2022-08-23T05:54:05.505Z,17.00
2022-08-23T05:56:39.034Z,17.00
2022-08-23T05:59:12.466Z,17.00
2022-08-23T06:01:44.462Z,16.60
2022-08-23T06:04:14.274Z,16.80
2022-08-23T06:06:44.646Z,17.80
2022-08-23T06:09:17.848Z,17.40
2022-08-23T06:14:18.110Z,17.20
2022-08-23T06:16:55.493Z,18.00
2022-08-23T06:19:25.508Z,17.20
2022-08-23T06:21:53.927Z,20.40
2022-08-23T06:24:24.039Z,18.80
2022-08-23T06:26:52.384Z,18.50
2022-08-23T06:29:22.033Z,18.70
2022-08-23T06:31:54.214Z,18.40
2022-08-23T06:34:32.993Z,16.20
2022-08-23T06:37:06.038Z,15.60
2022-08-23T06:39:37.318Z,14.20
2022-08-23T06:42:37.503Z,14.60
2022-08-23T06:45:02.405Z,12.70
2022-08-23T06:47:32.193Z,14.80
2022-08-23T06:50:03.454Z,13.60
2022-08-23T06:52:31.241Z,14.00
2022-08-23T06:55:03.993Z,14.40
2022-08-23T06:57:34.322Z,13.90
2022-08-23T07:00:02.234Z,13.40
2022-08-23T07:02:31.880Z,12.90
2022-08-23T07:05:03.451Z,12.90
2022-08-23T07:07:41.310Z,12.60
2022-08-23T07:10:15.686Z,12.30
2022-08-23T07:12:45.401Z,13.00
2022-08-23T07:15:15.193Z,11.60
2022-08-23T07:17:43.363Z,12.40
2022-08-23T07:20:13.173Z,11.70
2022-08-23T07:22:41.586Z,11.30
2022-08-23T07:25:09.524Z,11.20
2022-08-23T07:27:39.547Z,11.10
2022-08-23T07:30:11.429Z,11.10
2022-08-23T07:32:41.153Z,11.10
2022-08-23T07:35:09.274Z,10.90
2022-08-23T07:37:39.609Z,10.70
2022-08-23T07:40:10.427Z,11.10
2022-08-23T07:42:49.905Z,11.70
2022-08-23T07:45:23.063Z,11.30
2022-08-23T07:47:51.775Z,11.40
2022-08-23T07:50:21.989Z,10.20
2022-08-23T07:52:51.480Z,11.30
2022-08-23T07:55:21.472Z,10.80
2022-08-23T07:57:50.928Z,10.70
2022-08-23T08:00:20.509Z,9.90
2022-08-23T08:02:48.556Z,9.70
2022-08-23T08:05:21.792Z,10.00
2022-08-23T08:07:51.764Z,10.60
2022-08-23T08:10:20.887Z,10.90
2022-08-23T08:12:48.883Z,11.30
2022-08-23T08:15:19.518Z,11.60
2022-08-23T08:17:50.335Z,12.00
2022-08-23T08:20:21.804Z,11.60
2022-08-23T08:22:51.191Z,10.90
2022-08-23T08:25:29.271Z,9.80
2022-08-23T08:27:59.939Z,12.40
2022-08-23T08:30:28.487Z,11.00
2022-08-23T08:32:58.738Z,9.50
2022-08-23T08:35:28.828Z,10.20
2022-08-23T08:37:56.702Z,10.10
2022-08-23T08:40:33.942Z,9.30
2022-08-23T08:43:30.494Z,9.30
2022-08-23T08:46:25.961Z,8.80
2022-08-23T08:48:59.983Z,8.20
2022-08-23T08:51:58.312Z,9.60
2022-08-23T08:54:29.827Z,8.20
2022-08-23T08:57:05.863Z,8.10
2022-08-23T08:59:56.106Z,8.50
2022-08-23T09:02:32.718Z,8.30
2022-08-23T09:05:21.139Z,8.30
2022-08-23T09:08:07.115Z,7.30
2022-08-23T09:10:45.729Z,7.40
2022-08-23T09:13:46.540Z,6.80
2022-08-23T09:16:37.537Z,7.50
2022-08-23T09:19:07.458Z,7.00
2022-08-23T09:21:54.558Z,7.20
2022-08-23T09:24:24.363Z,6.80
2022-08-23T09:26:55.688Z,6.70
2022-08-23T09:29:29.265Z,6.80
2022-08-23T09:32:06.511Z,6.70
2022-08-23T09:34:38.540Z,6.90
2022-08-23T09:37:20.567Z,6.10
2022-08-23T09:40:14.192Z,6.40
2022-08-23T09:42:45.847Z,5.80
2022-08-23T09:45:38.125Z,5.80
2022-08-23T09:48:08.012Z,6.10
2022-08-23T09:50:51.201Z,6.80
2022-08-23T09:53:28.181Z,5.40
2022-08-23T09:55:58.917Z,5.50
2022-08-23T09:58:42.793Z,6.10
2022-08-23T10:01:20.444Z,5.50
2022-08-23T10:04:12.873Z,6.00
2022-08-23T10:06:44.641Z,5.90
2022-08-23T10:09:27.845Z,5.70
2022-08-23T10:11:58.680Z,5.40
2022-08-23T10:14:31.255Z,5.60
2022-08-23T10:17:19.702Z,6.30
2022-08-23T10:20:06.216Z,5.40
2022-08-23T10:22:45.369Z,5.60
2022-08-23T10:25:25.282Z,6.50
2022-08-23T10:28:43.032Z,5.30
2022-08-23T10:31:31.702Z,5.60
2022-08-23T10:34:11.815Z,5.20
2022-08-23T10:37:16.966Z,5.50
2022-08-23T10:40:03.666Z,6.40
2022-08-23T10:42:52.509Z,5.80
2022-08-23T10:45:39.321Z,5.90
2022-08-23T10:48:29.736Z,4.90
2022-08-23T10:51:11.668Z,6.80
2022-08-23T10:53:48.605Z,5.90
2022-08-23T10:56:21.090Z,5.90
2022-08-23T10:59:00.293Z,6.10
2022-08-23T11:01:57.301Z,5.00
2022-08-23T11:04:50.154Z,6.00
2022-08-23T11:07:28.420Z,6.50
2022-08-23T11:10:56.029Z,6.40
2022-08-23T11:13:29.845Z,5.90
2022-08-23T11:16:17.101Z,7.20
2022-08-23T11:18:49.720Z,7.30
2022-08-23T11:21:19.270Z,6.50
2022-08-23T11:23:55.619Z,6.50
2022-08-23T11:26:25.178Z,7.00
2022-08-23T11:29:08.090Z,6.40
2022-08-23T11:32:05.668Z,7.30
2022-08-23T11:34:43.939Z,7.70
2022-08-23T11:37:23.475Z,7.50
2022-08-23T11:39:58.704Z,8.10
2022-08-23T11:42:52.801Z,8.40
2022-08-23T11:45:23.636Z,6.80
2022-08-23T11:48:10.242Z,7.60
2022-08-23T11:50:57.779Z,7.00
2022-08-23T11:53:30.681Z,7.00
2022-08-23T11:56:26.720Z,6.20
2022-08-23T11:59:19.343Z,12.10
2022-08-23T12:01:48.178Z,15.80
2022-08-23T12:04:42.606Z,10.40
2022-08-23T12:07:13.629Z,11.60
2022-08-23T12:09:43.603Z,8.80
2022-08-23T12:12:39.440Z,9.40
2022-08-23T12:15:13.785Z,10.00
2022-08-23T12:17:42.118Z,8.70
2022-08-23T12:20:16.899Z,7.50
2022-08-23T12:23:08.160Z,7.50
2022-08-23T12:25:36.387Z,7.90
2022-08-23T12:28:29.977Z,8.50
2022-08-23T12:31:07.710Z,8.50
2022-08-23T12:33:56.814Z,8.70
2022-08-23T12:37:00.315Z,7.80
2022-08-23T12:39:51.171Z,8.40
2022-08-23T12:42:34.784Z,8.10
2022-08-23T12:45:18.102Z,6.90
2022-08-23T12:47:59.667Z,6.80
2022-08-23T12:50:39.515Z,7.50
2022-08-23T12:53:12.409Z,8.90
2022-08-23T12:55:44.803Z,8.00
2022-08-23T12:58:17.571Z,8.00
2022-08-23T13:00:57.672Z,6.80
2022-08-23T13:03:44.617Z,6.90
2022-08-23T13:06:24.571Z,7.60
2022-08-23T13:09:02.184Z,7.90
2022-08-23T13:11:34.200Z,8.10
2022-08-23T13:14:42.148Z,8.10
2022-08-23T13:17:27.455Z,7.80
2022-08-23T13:20:02.097Z,9.30
2022-08-23T13:22:39.180Z,7.70
2022-08-23T13:25:31.162Z,7.70
2022-08-23T13:28:31.442Z,7.20
2022-08-23T13:31:03.052Z,7.90
2022-08-23T13:33:31.318Z,7.80
2022-08-23T13:36:25.819Z,7.10
2022-08-23T13:38:53.689Z,8.90
2022-08-23T13:41:39.099Z,7.40
2022-08-23T13:44:18.375Z,9.30
2022-08-23T13:46:51.987Z,10.40
2022-08-23T13:49:29.185Z,10.70
2022-08-23T13:52:18.397Z,9.80
2022-08-23T13:54:53.090Z,10.00
2022-08-23T13:57:24.289Z,12.00
2022-08-23T13:59:59.148Z,10.90
2022-08-23T14:02:27.013Z,11.60
2022-08-23T14:04:54.910Z,12.90
2022-08-23T14:07:22.927Z,11.70
2022-08-23T14:09:54.865Z,13.10
2022-08-23T14:12:33.706Z,11.60
2022-08-23T14:15:06.722Z,11.90
2022-08-23T14:17:49.012Z,10.40
2022-08-23T14:20:43.289Z,12.10
2022-08-23T14:23:12.399Z,10.40
2022-08-23T14:25:44.665Z,11.30
2022-08-23T14:28:12.871Z,10.40
2022-08-23T14:30:40.845Z,11.80
2022-08-23T14:33:12.346Z,11.20
2022-08-23T14:35:40.419Z,12.10
2022-08-23T14:38:08.125Z,10.90
2022-08-23T14:40:39.471Z,11.50
2022-08-23T14:43:13.728Z,11.40
2022-08-23T14:45:45.362Z,13.20
2022-08-23T14:48:14.793Z,12.50
2022-08-23T14:50:44.395Z,12.10
2022-08-23T14:53:16.652Z,12.30
2022-08-23T14:58:16.792Z,11.50
2022-08-23T15:00:44.977Z,8.80
2022-08-23T15:03:25.001Z,9.50
2022-08-23T15:05:55.689Z,9.40
2022-08-23T15:08:26.414Z,10.80
2022-08-23T15:13:54.727Z,10.40
2022-08-23T15:16:28.622Z,9.80
2022-08-23T15:18:58.266Z,9.60
2022-08-23T15:21:30.200Z,9.50
2022-08-23T15:23:58.496Z,10.30
2022-08-23T15:26:34.637Z,9.60
2022-08-23T15:29:06.885Z,9.50
2022-08-23T15:31:38.438Z,9.10
2022-08-23T15:34:06.460Z,9.00
2022-08-23T15:36:43.885Z,8.70
2022-08-23T15:39:12.094Z,10.30
2022-08-23T15:41:39.971Z,9.10
2022-08-23T15:44:11.551Z,11.20
2022-08-23T15:46:39.798Z,8.80
2022-08-23T15:49:14.583Z,10.30
2022-08-23T15:51:44.819Z,9.70
2022-08-23T15:54:15.099Z,11.80
2022-08-23T15:56:53.328Z,10.50
2022-08-23T15:59:25.659Z,10.50
2022-08-23T16:01:53.606Z,10.90
2022-08-23T16:04:25.158Z,10.80
2022-08-23T16:06:53.158Z,10.20
2022-08-23T16:09:29.064Z,10.90
2022-08-23T16:12:00.149Z,10.20
2022-08-23T16:14:34.273Z,10.20
2022-08-23T16:17:04.878Z,10.90
2022-08-23T16:19:33.847Z,10.00
2022-08-23T16:22:04.526Z,8.90
2022-08-23T16:24:33.913Z,11.30
2022-08-23T16:27:03.220Z,10.90
2022-08-23T16:29:36.529Z,11.00
2022-08-23T16:32:08.232Z,12.60
2022-08-23T16:34:39.557Z,11.70
2022-08-23T16:37:11.667Z,10.50
2022-08-23T16:39:45.129Z,11.80
2022-08-23T16:42:13.057Z,10.50
2022-08-23T16:44:40.837Z,10.80
2022-08-23T16:47:13.459Z,10.50
2022-08-23T16:52:16.027Z,9.60
2022-08-23T16:54:51.980Z,10.80
2022-08-23T16:59:47.330Z,10.20
2022-08-23T17:02:35.209Z,11.50
2022-08-23T17:05:07.432Z,9.30
2022-08-23T17:07:39.898Z,10.60
2022-08-23T17:10:15.051Z,9.90
2022-08-23T17:12:51.521Z,9.40
2022-08-23T17:15:29.228Z,10.80
2022-08-23T17:18:02.139Z,11.20
2022-08-23T17:23:05.659Z,10.40
2022-08-23T17:25:38.730Z,10.90
2022-08-23T17:28:06.665Z,10.50
2022-08-23T17:30:40.138Z,11.90
2022-08-23T17:33:09.720Z,11.10
2022-08-23T17:35:37.545Z,13.10
2022-08-23T17:38:10.400Z,27.60
2022-08-23T17:40:42.553Z,14.50
2022-08-23T17:43:14.429Z,11.30
2022-08-23T17:45:51.130Z,11.60
2022-08-23T17:48:23.505Z,11.30
2022-08-23T17:50:51.247Z,12.60
2022-08-23T17:53:19.015Z,12.20
2022-08-23T17:55:46.926Z,11.70
2022-08-23T17:58:18.430Z,13.70
2022-08-23T18:00:46.586Z,12.50
2022-08-23T18:03:14.447Z,12.60
2022-08-23T18:05:47.680Z,12.50
2022-08-23T18:08:17.298Z,13.10
2022-08-23T18:10:45.984Z,11.80
2022-08-23T18:13:13.823Z,11.30
2022-08-23T18:15:41.580Z,12.50
2022-08-23T18:18:09.967Z,12.70
2022-08-23T18:20:41.213Z,11.80
2022-08-23T18:23:10.021Z,11.90
2022-08-23T18:25:40.251Z,11.10
2022-08-23T18:28:10.066Z,12.10
2022-08-23T18:30:54.683Z,10.20
2022-08-23T18:33:32.285Z,10.10
2022-08-23T18:36:13.814Z,11.00
2022-08-23T18:38:44.948Z,12.20
2022-08-23T18:41:14.349Z,9.70
2022-08-23T18:43:42.838Z,10.40
2022-08-23T18:46:12.331Z,10.30
2022-08-23T18:48:41.024Z,9.40
2022-08-23T18:51:17.641Z,10.60
2022-08-23T18:53:47.621Z,10.90
2022-08-23T18:56:16.209Z,9.60
2022-08-23T18:58:44.742Z,9.60
2022-08-23T19:01:26.500Z,10.30
2022-08-23T19:03:57.444Z,9.20
2022-08-23T19:06:26.294Z,10.60
2022-08-23T19:08:55.760Z,12.90
2022-08-23T19:11:25.794Z,10.90
2022-08-23T19:13:59.343Z,10.90
2022-08-23T19:16:29.872Z,11.80
2022-08-23T19:18:59.025Z,11.50
2022-08-23T19:21:27.281Z,9.90
2022-08-23T19:23:59.216Z,11.60
2022-08-23T19:26:32.096Z,10.80
2022-08-23T19:29:10.911Z,11.10
2022-08-23T19:31:46.746Z,10.90
2022-08-23T19:34:19.582Z,11.70
2022-08-23T19:36:58.068Z,12.30
2022-08-23T19:39:32.125Z,11.60
2022-08-23T19:42:11.056Z,11.70
2022-08-23T19:44:41.464Z,11.50
2022-08-23T19:47:19.457Z,11.70
2022-08-23T19:49:50.842Z,10.70
2022-08-23T19:52:24.141Z,11.90
2022-08-23T19:54:55.506Z,11.30
2022-08-23T19:57:24.045Z,10.70
2022-08-23T19:59:51.936Z,12.30
2022-08-23T20:02:22.367Z,10.20
2022-08-23T20:04:54.608Z,11.70
2022-08-23T20:07:24.633Z,11.30
2022-08-23T20:09:53.278Z,11.30
2022-08-23T20:12:21.564Z,10.40
2022-08-23T20:14:50.065Z,11.20
2022-08-23T20:17:23.268Z,9.30
2022-08-23T20:19:54.498Z,9.90
2022-08-23T20:22:41.205Z,10.10
2022-08-23T20:25:11.834Z,9.10
2022-08-23T20:27:39.920Z,8.40
2022-08-23T20:30:12.992Z,8.90
2022-08-23T20:35:14.790Z,9.10
2022-08-23T20:37:42.753Z,9.30
2022-08-23T20:40:11.060Z,10.00
2022-08-23T20:42:41.755Z,8.20
2022-08-23T20:45:11.212Z,7.70
2022-08-23T20:47:44.406Z,9.20
2022-08-23T20:50:14.664Z,8.30
2022-08-23T20:52:44.477Z,7.70
2022-08-23T20:55:18.076Z,8.00
2022-08-23T20:57:48.363Z,8.40
2022-08-23T21:00:18.953Z,6.50
2022-08-23T21:02:46.720Z,8.00
2022-08-23T21:05:15.892Z,8.80
2022-08-23T21:07:44.991Z,8.00
2022-08-23T21:10:16.105Z,8.50
2022-08-23T21:12:44.320Z,7.20
2022-08-23T21:15:15.458Z,8.40
2022-08-23T21:17:43.701Z,9.50
2022-08-23T21:20:17.059Z,8.10
2022-08-23T21:22:46.662Z,7.50
2022-08-23T21:25:17.394Z,9.00
2022-08-23T21:27:45.160Z,8.20
2022-08-23T21:30:19.322Z,9.50
2022-08-23T21:32:49.334Z,8.30
2022-08-23T21:35:19.493Z,7.90
2022-08-23T21:37:48.596Z,7.30
2022-08-23T21:40:16.439Z,7.50
2022-08-23T21:42:48.277Z,7.90
2022-08-23T21:45:16.360Z,8.60
2022-08-23T21:47:44.979Z,7.60
2022-08-23T21:50:12.883Z,9.20
2022-08-23T21:52:41.193Z,7.70
2022-08-23T21:55:09.570Z,7.20
2022-08-23T21:57:38.361Z,8.00
2022-08-23T22:00:13.985Z,7.70
2022-08-23T22:02:45.360Z,7.50
2022-08-23T22:05:15.773Z,9.00
2022-08-23T22:07:43.821Z,8.60
2022-08-23T22:10:14.599Z,7.90
2022-08-23T22:12:42.446Z,8.70
2022-08-23T22:15:14.307Z,8.20
2022-08-23T22:17:42.503Z,8.20
2022-08-23T22:20:15.145Z,8.10
2022-08-23T22:22:46.636Z,8.50
2022-08-23T22:25:14.686Z,7.80
2022-08-23T22:27:45.649Z,8.50
2022-08-23T22:30:20.216Z,9.50
2022-08-23T22:32:48.206Z,9.00
2022-08-23T22:35:19.586Z,9.70
2022-08-23T22:38:12.399Z,9.30
2022-08-23T22:40:42.435Z,8.80
2022-08-23T22:43:10.443Z,9.80
2022-08-23T22:45:44.956Z,8.70
2022-08-23T22:48:15.808Z,8.10
2022-08-23T22:50:46.822Z,9.80
2022-08-23T22:53:18.244Z,11.30
2022-08-23T22:55:53.166Z,9.30
2022-08-23T22:58:21.296Z,7.00
2022-08-23T23:00:51.535Z,7.70
2022-08-23T23:03:24.147Z,8.50
2022-08-23T23:05:52.339Z,8.30
2022-08-23T23:08:29.278Z,7.90
2022-08-23T23:11:02.532Z,8.70
2022-08-23T23:13:32.121Z,7.30
2022-08-23T23:16:03.508Z,8.30
2022-08-23T23:18:31.346Z,9.80
2022-08-23T23:21:03.408Z,8.10
2022-08-23T23:23:33.093Z,7.60
2022-08-23T23:26:03.253Z,7.80
2022-08-23T23:28:31.082Z,8.50
2022-08-23T23:31:02.442Z,8.00
2022-08-23T23:33:30.537Z,7.40
2022-08-23T23:36:02.042Z,7.40
2022-08-23T23:38:31.771Z,9.50
2022-08-23T23:41:01.887Z,9.00
2022-08-23T23:43:32.106Z,7.40
2022-08-23T23:46:06.467Z,8.00
2022-08-23T23:48:36.336Z,8.00
2022-08-23T23:51:11.865Z,8.10
2022-08-23T23:53:43.071Z,8.30
2022-08-23T23:56:15.561Z,8.20
2022-08-23T23:58:47.511Z,9.10
